Time;durP1;ratioP1;P1;durP2;ratioP2;P2;SDS_P1;SDS_P2;PMS_P1;PMS_P2;Temp;Humidity;BMP_temperature;BMP_pressure;BME280_temperature;BME280_humidity;BME280_pressure;Samples;Min_cycle;Max_cycle;Signal;HPM_P1;HPM_P2
2022/04/03 00:00:06;;;;;;;0.75;0.50;;;21.20;67.80;;;;;;5052357;23;20013;-47
2022/04/03 00:02:28;;;;;;;0.35;0.35;;;21.30;67.70;;;;;;5049362;23;20071;-52
2022/04/03 00:04:51;;;;;;;2.55;1.20;;;21.30;67.60;;;;;;5059362;23;20052;-45
2022/04/03 00:07:13;;;;;;;11.25;1.50;;;21.30;67.80;;;;;;5049350;23;20022;-44
2022/04/03 00:09:35;;;;;;;7.30;1.42;;;21.40;67.40;;;;;;5051422;23;20016;-46
2022/04/03 00:11:58;;;;;;;2.50;1.20;;;21.40;67.50;;;;;;5056472;23;20120;-52
2022/04/03 00:14:20;;;;;;;6.10;1.70;;;21.40;67.40;;;;;;5052112;23;20017;-48
2022/04/03 00:16:43;;;;;;;2.85;1.30;;;21.40;67.30;;;;;;5051969;23;20028;-46
2022/04/03 00:19:05;;;;;;;7.82;1.73;;;21.40;67.10;;;;;;5057447;23;20013;-44
2022/04/03 00:21:28;;;;;;;5.75;1.55;;;21.40;67.00;;;;;;5056474;23;20021;-47
2022/04/03 00:23:50;;;;;;;10.50;2.25;;;21.50;67.00;;;;;;5057506;23;20050;-46
2022/04/03 00:26:13;;;;;;;3.80;1.90;;;21.50;67.10;;;;;;5065753;23;20044;-47
2022/04/03 00:28:36;;;;;;;3.20;1.38;;;21.50;67.00;;;;;;5062453;23;20132;-54
2022/04/03 00:30:59;;;;;;;3.25;1.63;;;21.50;67.00;;;;;;5059555;23;20036;-51
2022/04/03 00:33:21;;;;;;;4.40;1.60;;;21.50;67.00;;;;;;5064027;23;20120;-50
2022/04/03 00:36:09;;;;;;;1.95;1.23;;;21.60;67.00;;;;;;5081049;23;20471;-51
2022/04/03 00:38:32;;;;;;;2.80;1.40;;;21.60;67.40;;;;;;5073795;23;20025;-52
2022/04/03 00:40:54;;;;;;;2.28;1.40;;;21.60;66.90;;;;;;5073195;23;20304;-45
2022/04/03 00:43:17;;;;;;;4.07;1.10;;;21.70;66.90;;;;;;5073557;23;20040;-53
2022/04/03 00:45:46;;;;;;;1.42;1.02;;;21.70;66.70;;;;;;5070827;23;20444;-49
2022/04/03 00:48:10;;;;;;;1.77;0.93;;;21.70;66.70;;;;;;5060286;23;20013;-52
2022/04/03 00:50:32;;;;;;;6.60;1.10;;;21.70;66.70;;;;;;5055485;23;20116;-45
2022/04/03 00:52:55;;;;;;;2.65;0.90;;;21.80;66.60;;;;;;5065047;23;20021;-53
2022/04/03 00:55:18;;;;;;;1.80;1.00;;;21.80;66.60;;;;;;5049392;23;20605;-47
2022/04/03 00:57:43;;;;;;;2.13;0.80;;;21.80;66.40;;;;;;5043380;23;20029;-51
2022/04/03 01:00:06;;;;;;;1.52;0.70;;;21.80;66.30;;;;;;5017472;23;20033;-47
2022/04/03 01:02:31;;;;;;;1.67;0.80;;;21.80;66.20;;;;;;5050499;23;20017;-48
2022/04/03 01:04:53;;;;;;;1.45;0.85;;;21.90;66.30;;;;;;5042925;23;20350;-46
2022/04/03 01:07:16;;;;;;;1.10;0.80;;;21.90;66.20;;;;;;5047208;23;20013;-52
2022/04/03 01:09:38;;;;;;;0.90;0.60;;;21.90;66.30;;;;;;5051362;23;20017;-52
2022/04/03 01:12:01;;;;;;;0.65;0.50;;;21.90;66.20;;;;;;5048180;23;20455;-51
2022/04/03 01:14:37;;;;;;;0.73;0.60;;;21.90;66.20;;;;;;5050359;23;20015;-45
2022/04/03 01:17:00;;;;;;;0.75;0.50;;;21.90;66.20;;;;;;5044019;23;20048;-47
2022/04/03 01:19:22;;;;;;;0.73;0.50;;;22.00;66.20;;;;;;5052553;23;20371;-50
2022/04/03 01:21:45;;;;;;;1.90;0.60;;;21.90;66.10;;;;;;5053164;23;20029;-53
2022/04/03 01:24:18;;;;;;;1.08;0.55;;;22.00;66.10;;;;;;5047315;23;20048;-51
2022/04/03 01:26:40;;;;;;;0.85;0.70;;;22.00;66.10;;;;;;5053113;23;20164;-53
2022/04/03 01:29:03;;;;;;;1.17;0.57;;;22.00;66.00;;;;;;5047413;23;20013;-50
2022/04/03 01:31:25;;;;;;;0.40;0.40;;;22.00;65.90;;;;;;5047842;23;20025;-50
2022/04/03 01:33:48;;;;;;;0.77;0.50;;;22.10;66.00;;;;;;5054353;23;20443;-52
2022/04/03 01:36:10;;;;;;;4.22;0.50;;;22.10;65.90;;;;;;5045955;23;20021;-48
2022/04/03 01:38:33;;;;;;;1.02;0.70;;;22.10;65.90;;;;;;5046044;23;20017;-50
2022/04/03 01:40:55;;;;;;;0.50;0.40;;;22.10;65.80;;;;;;5052544;23;20021;-50
2022/04/03 01:43:18;;;;;;;0.85;0.40;;;22.10;65.80;;;;;;5045360;23;20068;-51
2022/04/03 01:45:41;;;;;;;0.50;0.32;;;22.10;65.70;;;;;;5046532;23;20611;-49
2022/04/03 01:48:05;;;;;;;0.30;0.30;;;22.20;65.60;;;;;;5042167;23;20459;-49
2022/04/03 01:50:27;;;;;;;;;;;22.20;65.60;;;;;;5016420;23;20870;-48
2022/04/03 01:52:49;;;;;;;1.10;0.60;;;22.20;65.70;;;;;;5038475;23;19912;-48
2022/04/03 01:55:12;;;;;;;0.93;0.40;;;22.20;65.60;;;;;;5042443;23;20891;-52
2022/04/03 01:57:34;;;;;;;0.68;0.30;;;22.20;65.40;;;;;;5038816;23;20391;-52
2022/04/03 01:59:57;;;;;;;0.30;0.30;;;22.20;65.40;;;;;;5038869;23;21185;-55
2022/04/03 02:02:19;;;;;;;0.75;0.55;;;22.30;65.30;;;;;;5043802;23;20017;-51
2022/04/03 02:04:42;;;;;;;0.40;0.40;;;22.30;65.20;;;;;;5039841;23;20020;-50
2022/04/03 02:07:04;;;;;;;1.55;0.32;;;22.30;65.20;;;;;;5037846;23;20017;-48
2022/04/03 02:09:27;;;;;;;0.77;0.40;;;22.30;65.10;;;;;;5045972;23;20435;-52
2022/04/03 02:11:49;;;;;;;0.30;0.30;;;22.40;65.20;;;;;;5041102;23;20108;-46
2022/04/03 02:14:12;;;;;;;0.43;0.38;;;22.40;65.20;;;;;;5043052;23;20028;-49
2022/04/03 02:16:35;;;;;;;0.40;0.40;;;22.40;65.10;;;;;;5051233;23;20124;-48
2022/04/03 02:18:57;;;;;;;1.55;0.50;;;22.40;65.20;;;;;;5049191;23;20092;-51
2022/04/03 02:21:20;;;;;;;1.65;0.52;;;22.50;64.90;;;;;;5053868;23;20109;-48
2022/04/03 02:23:42;;;;;;;1.17;0.50;;;22.50;64.80;;;;;;5061321;23;20615;-48
2022/04/03 02:26:04;;;;;;;0.68;0.50;;;22.50;64.90;;;;;;5056880;23;20040;-50
2022/04/03 02:28:27;;;;;;;1.30;0.47;;;22.50;64.60;;;;;;5054448;23;20097;-46
2022/04/03 02:30:50;;;;;;;0.35;0.35;;;22.50;64.70;;;;;;5061677;23;20021;-52
2022/04/03 02:33:13;;;;;;;0.55;0.55;;;22.50;64.60;;;;;;5056643;23;20380;-50
2022/04/03 02:35:35;;;;;;;0.85;0.65;;;22.50;64.50;;;;;;5056357;23;20021;-43
2022/04/03 02:37:58;;;;;;;1.73;0.60;;;22.50;64.40;;;;;;5061646;23;20024;-50
2022/04/03 02:40:21;;;;;;;0.75;0.40;;;22.60;64.50;;;;;;5056506;23;20040;-50
2022/04/03 02:42:44;;;;;;;5.35;0.60;;;22.60;64.40;;;;;;5045792;23;20021;-52
2022/04/03 02:45:08;;;;;;;0.82;0.70;;;22.60;64.30;;;;;;5063735;23;20790;-48
2022/04/03 02:47:30;;;;;;;15.23;1.05;;;22.60;64.20;;;;;;5057043;23;20518;-48
2022/04/03 02:49:53;;;;;;;1.08;0.40;;;22.60;64.20;;;;;;5058178;23;20338;-45
2022/04/03 02:52:15;;;;;;;1.33;0.60;;;22.60;63.90;;;;;;5052470;23;20052;-48
2022/04/03 02:54:38;;;;;;;0.57;0.50;;;22.70;64.20;;;;;;5057010;23;20021;-50
2022/04/03 02:57:01;;;;;;;2.15;0.70;;;22.70;64.30;;;;;;5058619;23;20010;-46
2022/04/03 02:59:23;;;;;;;5.35;0.90;;;22.70;64.30;;;;;;5063227;23;20017;-49
2022/04/03 03:01:47;;;;;;;2.72;0.70;;;22.70;64.30;;;;;;5056773;23;20014;-46
2022/04/03 03:04:09;;;;;;;2.45;0.45;;;22.80;64.30;;;;;;5059743;23;20096;-49
2022/04/03 03:06:32;;;;;;;0.63;0.52;;;22.80;64.30;;;;;;5056908;23;20475;-48
2022/04/03 03:08:54;;;;;;;2.28;0.68;;;22.80;64.10;;;;;;5058477;23;20021;-47
2022/04/03 03:11:16;;;;;;;2.67;0.60;;;22.80;64.00;;;;;;5058604;23;20032;-46
2022/04/03 03:13:39;;;;;;;2.80;0.52;;;22.80;64.10;;;;;;5059231;23;20267;-44
2022/04/03 03:16:02;;;;;;;2.00;0.70;;;22.80;64.00;;;;;;5059746;23;20500;-45
2022/04/03 03:18:24;;;;;;;0.95;0.60;;;22.80;64.00;;;;;;5055132;23;20018;-44
2022/04/03 03:20:47;;;;;;;2.45;0.70;;;22.90;63.90;;;;;;5061461;23;20355;-45
2022/04/03 03:23:09;;;;;;;9.30;0.73;;;22.90;63.90;;;;;;5048472;23;20021;-54
2022/04/03 03:25:31;;;;;;;3.42;1.00;;;22.90;64.20;;;;;;5043421;23;20021;-46
2022/04/03 03:27:54;;;;;;;1.95;0.82;;;22.90;63.90;;;;;;5050189;23;20439;-48
2022/04/03 03:30:17;;;;;;;4.00;0.88;;;22.90;63.40;;;;;;5044404;23;20028;-46
2022/04/03 03:32:39;;;;;;;2.80;1.00;;;22.90;63.00;;;;;;5045549;23;20025;-49
2022/04/03 03:35:02;;;;;;;1.30;0.65;;;22.90;62.70;;;;;;5052800;23;20017;-48
2022/04/03 03:37:25;;;;;;;0.70;0.60;;;22.90;62.50;;;;;;5043813;23;20021;-48
2022/04/03 03:39:48;;;;;;;1.13;0.73;;;22.90;62.40;;;;;;5047160;23;20021;-49
2022/04/03 03:42:10;;;;;;;2.25;0.82;;;22.90;62.20;;;;;;5056048;23;20761;-50
2022/04/03 03:44:32;;;;;;;2.03;0.70;;;22.90;62.00;;;;;;5046398;23;20725;-49
2022/04/03 03:46:55;;;;;;;2.63;1.00;;;22.90;61.80;;;;;;5046454;23;20167;-49
2022/04/03 03:49:17;;;;;;;2.58;0.70;;;23.00;61.80;;;;;;5052933;23;20418;-49
2022/04/03 03:51:40;;;;;;;1.45;0.82;;;23.00;61.60;;;;;;5047275;23;20109;-48
2022/04/03 03:54:04;;;;;;;1.92;0.80;;;22.90;61.70;;;;;;5040896;23;20088;-45
2022/04/03 03:56:27;;;;;;;4.45;1.13;;;23.00;61.90;;;;;;5049230;23;20025;-49
2022/04/03 03:58:49;;;;;;;2.70;1.00;;;23.10;62.00;;;;;;5045100;23;20045;-44
2022/04/03 04:01:12;;;;;;;1.65;0.73;;;23.10;62.00;;;;;;5044583;23;20014;-45
2022/04/03 04:03:35;;;;;;;4.40;1.23;;;23.20;62.10;;;;;;5041942;23;20017;-45
2022/04/03 04:05:57;;;;;;;2.55;0.90;;;23.20;62.00;;;;;;5045397;23;20018;-48
2022/04/03 04:08:19;;;;;;;2.83;1.00;;;23.20;62.10;;;;;;5044400;23;20573;-46
2022/04/03 04:10:42;;;;;;;1.25;0.68;;;23.30;62.10;;;;;;5052178;23;20076;-46
2022/04/03 04:13:05;;;;;;;3.10;0.88;;;23.40;62.20;;;;;;5039304;23;20523;-46
2022/04/03 04:15:28;;;;;;;1.50;0.80;;;23.40;62.10;;;;;;5047681;23;20017;-43
2022/04/03 04:17:56;;;;;;;4.35;0.98;;;23.50;62.20;;;;;;5055532;23;20122;-45
2022/04/03 04:20:19;;;;;;;2.53;0.77;;;23.50;62.20;;;;;;5047750;23;20371;-46
2022/04/03 04:22:44;;;;;;;0.98;0.68;;;23.60;62.30;;;;;;5049198;23;20013;-47
2022/04/03 04:25:08;;;;;;;2.08;1.05;;;23.70;62.20;;;;;;5051574;23;20013;-47
2022/04/03 04:27:30;;;;;;;3.97;1.08;;;23.80;62.00;;;;;;5048941;23;20557;-46
2022/04/03 04:29:53;;;;;;;1.90;0.77;;;23.80;61.80;;;;;;5056878;23;20010;-53
2022/04/03 04:32:16;;;;;;;4.63;1.35;;;23.90;61.70;;;;;;5057942;23;20702;-45
2022/04/03 04:34:38;;;;;;;4.22;1.63;;;24.00;61.50;;;;;;5055187;23;20009;-46
2022/04/03 04:37:01;;;;;;;15.98;1.65;;;24.00;61.40;;;;;;5053439;23;20116;-46
2022/04/03 04:39:24;;;;;;;2.00;0.90;;;24.10;61.50;;;;;;5064901;23;20074;-46
2022/04/03 04:41:46;;;;;;;5.53;1.30;;;24.10;61.50;;;;;;5056497;23;20748;-47
2022/04/03 04:44:09;;;;;;;2.53;1.15;;;24.20;61.50;;;;;;5055012;23;20532;-44
2022/04/03 04:46:32;;;;;;;3.07;1.50;;;24.30;61.50;;;;;;5064645;23;20018;-48
2022/04/03 04:48:55;;;;;;;3.55;1.02;;;24.30;61.40;;;;;;5062097;23;20048;-45
2022/04/03 04:51:17;;;;;;;3.70;0.98;;;24.40;61.40;;;;;;5056683;23;20033;-50
2022/04/03 04:53:40;;;;;;;3.70;0.80;;;24.40;61.40;;;;;;5061457;23;20017;-51
2022/04/03 04:56:02;;;;;;;4.13;0.98;;;24.50;61.40;;;;;;5063968;23;20570;-47
2022/04/03 04:58:26;;;;;;;3.58;1.02;;;24.50;61.40;;;;;;5024740;23;20690;-45
2022/04/03 05:00:49;;;;;;;3.28;1.02;;;24.50;61.40;;;;;;5064533;23;20017;-43
2022/04/03 05:03:12;;;;;;;3.50;0.95;;;24.50;61.30;;;;;;5062010;23;20537;-49
2022/04/03 05:05:47;;;;;;;4.07;1.10;;;24.60;61.50;;;;;;5070496;23;21209;-42
2022/04/03 05:08:10;;;;;;;1.30;0.80;;;24.60;61.30;;;;;;5044166;23;20987;-45
2022/04/03 05:10:33;;;;;;;3.90;0.90;;;24.60;61.40;;;;;;5040568;23;21048;-50
2022/04/03 05:12:56;;;;;;;1.65;0.95;;;24.60;61.50;;;;;;5037015;23;20108;-44
2022/04/03 05:15:18;;;;;;;4.35;0.88;;;24.60;61.40;;;;;;5041618;23;20026;-44
2022/04/03 05:17:43;;;;;;;1.50;0.75;;;24.60;61.50;;;;;;5042396;23;20009;-48
2022/04/03 05:20:06;;;;;;;1.65;1.00;;;24.60;61.50;;;;;;5044920;23;20028;-44
2022/04/03 05:22:29;;;;;;;4.30;1.15;;;24.70;61.60;;;;;;5040421;23;21012;-45
2022/04/03 05:24:53;;;;;;;2.85;1.00;;;24.70;61.60;;;;;;5048973;23;20172;-46
2022/04/03 05:27:15;;;;;;;2.30;0.70;;;24.70;61.70;;;;;;5048791;23;20021;-46
2022/04/03 05:29:38;;;;;;;1.65;0.98;;;24.70;61.90;;;;;;5045216;23;20021;-44
2022/04/03 05:32:01;;;;;;;2.47;1.20;;;24.80;61.90;;;;;;5051882;23;20022;-51
2022/04/03 05:34:24;;;;;;;3.65;1.15;;;24.80;62.00;;;;;;5047344;23;20514;-46
2022/04/03 05:36:46;;;;;;;3.45;0.70;;;24.80;61.90;;;;;;5044768;23;20024;-47
2022/04/03 05:39:09;;;;;;;2.67;0.93;;;24.80;62.00;;;;;;5050252;23;20021;-45
2022/04/03 05:41:32;;;;;;;4.32;0.90;;;24.80;61.80;;;;;;5050075;23;20080;-49
2022/04/03 05:43:55;;;;;;;2.08;0.90;;;24.90;61.80;;;;;;5042325;23;20010;-50
2022/04/03 05:46:17;;;;;;;1.50;0.93;;;24.90;61.90;;;;;;5045112;23;20926;-53
2022/04/03 05:48:40;;;;;;;4.40;0.88;;;24.90;61.80;;;;;;5047251;23;20014;-46
2022/04/03 05:51:03;;;;;;;4.40;1.10;;;24.90;61.70;;;;;;5041604;23;20021;-49
2022/04/03 05:53:26;;;;;;;1.85;0.80;;;24.90;61.80;;;;;;5043478;23;21022;-51
2022/04/03 05:55:48;;;;;;;2.58;1.02;;;25.00;61.80;;;;;;5047351;23;20359;-50
2022/04/03 05:58:11;;;;;;;2.50;1.17;;;25.00;61.80;;;;;;5041489;23;20056;-49
2022/04/03 06:00:34;;;;;;;4.05;0.80;;;25.00;61.70;;;;;;5046216;23;20021;-45
2022/04/03 06:02:58;;;;;;;4.70;1.10;;;25.10;61.60;;;;;;5039626;23;20009;-45
2022/04/03 06:05:26;;;;;;;1.77;0.93;;;25.00;61.20;;;;;;5043434;23;20091;-48
2022/04/03 06:07:49;;;;;;;4.13;1.10;;;25.00;61.20;;;;;;5050670;23;20445;-45
2022/04/03 06:10:13;;;;;;;2.33;0.90;;;25.00;61.40;;;;;;5042742;23;20203;-48
2022/04/03 06:12:35;;;;;;;2.30;0.98;;;25.00;61.40;;;;;;5008816;23;20048;-46
2022/04/03 06:14:58;;;;;;;3.70;1.30;;;25.00;61.40;;;;;;5048243;23;20943;-43
2022/04/03 06:17:20;;;;;;;8.35;1.40;;;25.10;61.50;;;;;;5041571;23;20636;-57
2022/04/03 06:19:43;;;;;;;12.98;1.98;;;25.10;61.40;;;;;;5043340;23;20054;-50
2022/04/03 06:22:05;;;;;;;12.98;2.22;;;25.10;61.50;;;;;;5049504;23;20092;-52
2022/04/03 06:24:28;;;;;;;14.85;2.95;;;25.10;61.40;;;;;;5043085;23;20786;-52
2022/04/03 06:26:50;;;;;;;14.60;2.10;;;25.10;61.50;;;;;;5043391;23;20623;-47
2022/04/03 06:29:13;;;;;;;17.40;2.45;;;25.10;61.60;;;;;;5050050;23;20024;-49
2022/04/03 06:31:35;;;;;;;16.73;2.50;;;25.10;61.80;;;;;;5041819;23;20615;-50
2022/04/03 06:33:57;;;;;;;24.92;2.30;;;25.10;61.90;;;;;;5041887;23;20884;-52
2022/04/03 06:36:20;;;;;;;10.02;2.55;;;25.10;61.70;;;;;;5048861;23;20033;-54
2022/04/03 06:38:43;;;;;;;8.40;2.13;;;25.10;62.00;;;;;;5040086;23;20017;-52
2022/04/03 06:41:07;;;;;;;12.13;2.20;;;25.10;62.20;;;;;;5043532;23;20248;-49
2022/04/03 06:43:31;;;;;;;9.15;1.90;;;25.10;62.30;;;;;;5048458;23;20020;-55
2022/04/03 06:45:54;;;;;;;16.63;1.95;;;25.10;62.30;;;;;;5041772;23;20125;-55
2022/04/03 06:48:16;;;;;;;;;;;25.10;62.30;;;;;;5043927;23;20276;-55
2022/04/03 06:50:39;;;;;;;8.10;1.67;;;25.10;62.20;;;;;;5043262;23;19908;-55
2022/04/03 06:53:04;;;;;;;5.00;1.77;;;25.20;62.30;;;;;;5038600;23;20037;-57
2022/04/03 06:55:26;;;;;;;6.85;1.48;;;25.10;61.90;;;;;;5046454;23;20021;-55
2022/04/03 06:57:49;;;;;;;10.40;1.70;;;25.10;62.00;;;;;;5044117;23;20024;-56
2022/04/03 07:00:13;;;;;;;9.45;1.73;;;25.20;62.00;;;;;;5043301;23;20100;-50
2022/04/03 07:02:36;;;;;;;4.90;1.27;;;25.20;62.00;;;;;;5045675;23;20041;-52
2022/04/03 07:04:58;;;;;;;8.30;1.70;;;25.20;62.00;;;;;;5046380;23;20663;-56
2022/04/03 07:07:22;;;;;;;3.67;1.20;;;25.20;61.90;;;;;;5039515;23;20034;-52
2022/04/03 07:09:45;;;;;;;8.55;1.77;;;25.20;61.90;;;;;;5049414;23;20036;-51
2022/04/03 07:12:09;;;;;;;5.38;1.63;;;25.20;61.80;;;;;;5042832;23;20029;-51
2022/04/03 07:14:32;;;;;;;6.57;1.60;;;25.20;61.70;;;;;;5042304;23;20017;-51
2022/04/03 07:16:54;;;;;;;4.35;1.27;;;25.20;61.80;;;;;;5050907;23;20090;-51
2022/04/03 07:19:17;;;;;;;6.53;1.75;;;25.20;61.80;;;;;;5041558;23;20009;-54
2022/04/03 07:21:39;;;;;;;5.18;1.00;;;25.20;61.80;;;;;;5036597;23;20583;-53
2022/04/03 07:24:01;;;;;;;2.50;1.15;;;25.20;61.80;;;;;;5044227;23;20053;-54
2022/04/03 07:26:24;;;;;;;4.18;1.45;;;25.20;61.80;;;;;;5043725;23;20175;-49
2022/04/03 07:28:46;;;;;;;7.43;1.40;;;25.20;62.00;;;;;;5044519;23;20712;-46
2022/04/03 07:31:12;;;;;;;21.45;2.63;;;25.20;62.20;;;;;;5049375;23;20025;-53
2022/04/03 07:33:34;;;;;;;20.10;2.92;;;25.20;62.40;;;;;;5044898;23;20013;-54
2022/04/03 07:35:57;;;;;;;16.15;1.88;;;25.20;62.50;;;;;;5044011;23;20542;-50
2022/04/03 07:38:19;;;;;;;20.52;3.13;;;25.20;62.50;;;;;;5051030;23;20028;-52
2022/04/03 07:40:42;;;;;;;20.15;2.83;;;25.30;62.50;;;;;;5041196;23;20013;-56
2022/04/03 07:43:05;;;;;;;8.50;2.00;;;25.30;62.40;;;;;;5039940;23;20058;-53
2022/04/03 07:45:27;;;;;;;20.17;2.53;;;25.20;62.50;;;;;;5044642;23;20043;-52
2022/04/03 07:47:51;;;;;;;9.77;2.45;;;25.20;62.50;;;;;;5045231;23;20013;-55
2022/04/03 07:50:13;;;;;;;;;;;25.30;62.70;;;;;;5046123;23;20024;-49
2022/04/03 07:52:35;;;;;;;11.60;2.22;;;25.30;62.70;;;;;;5049406;23;19924;-53
2022/04/03 07:54:58;;;;;;;12.88;1.75;;;25.20;62.50;;;;;;5048333;23;20029;-53
2022/04/03 07:57:21;;;;;;;12.70;2.03;;;25.20;62.40;;;;;;5047823;23;20087;-52
2022/04/03 07:59:43;;;;;;;14.20;2.08;;;25.20;62.50;;;;;;5051530;23;20021;-51
2022/04/03 08:02:06;;;;;;;13.25;2.13;;;25.30;62.70;;;;;;5049977;23;20815;-55
2022/04/03 08:04:29;;;;;;;15.20;2.05;;;25.20;62.70;;;;;;5052700;23;20117;-51
2022/04/03 08:06:51;;;;;;;27.25;2.38;;;25.30;62.50;;;;;;5047607;23;21059;-55
2022/04/03 08:09:14;;;;;;;6.90;2.08;;;25.30;62.60;;;;;;5053946;23;20021;-53
2022/04/03 08:11:36;;;;;;;8.07;1.92;;;25.30;62.30;;;;;;5052458;23;20025;-55
2022/04/03 08:13:58;;;;;;;4.97;1.73;;;25.20;62.30;;;;;;5053966;23;20884;-51
2022/04/03 08:16:21;;;;;;;8.70;1.77;;;25.20;62.10;;;;;;5056615;23;20017;-52
2022/04/03 08:18:44;;;;;;;5.95;1.35;;;25.20;62.10;;;;;;5050054;23;20037;-54
2022/04/03 08:21:06;;;;;;;8.15;2.13;;;25.20;62.00;;;;;;5021025;23;20045;-55
2022/04/03 08:23:29;;;;;;;7.32;1.90;;;25.20;62.10;;;;;;5055707;23;20448;-53
2022/04/03 08:25:51;;;;;;;4.13;1.55;;;25.30;62.20;;;;;;5048848;23;20068;-50
2022/04/03 08:28:16;;;;;;;3.72;1.60;;;25.20;62.10;;;;;;5048746;23;20021;-54
2022/04/03 08:30:39;;;;;;;5.18;1.98;;;25.20;62.20;;;;;;5052499;23;20124;-51
2022/04/03 08:33:05;;;;;;;8.57;1.77;;;25.20;62.40;;;;;;5046320;23;20649;-53
2022/04/03 08:35:31;;;;;;;8.45;2.17;;;25.20;62.40;;;;;;5053522;23;20857;-49
2022/04/03 08:37:54;;;;;;;7.13;1.70;;;25.20;62.40;;;;;;5046701;23;20028;-47
2022/04/03 08:40:18;;;;;;;9.25;2.13;;;25.20;62.20;;;;;;5049018;23;20017;-47
2022/04/03 08:42:41;;;;;;;8.55;1.65;;;25.20;62.10;;;;;;5057210;23;20045;-48
2022/04/03 08:45:11;;;;;;;11.95;2.22;;;25.30;62.30;;;;;;5048747;23;20024;-50
2022/04/03 08:47:48;;;;;;;6.30;1.67;;;25.30;62.60;;;;;;5057206;23;20018;-48
2022/04/03 08:50:15;;;;;;;4.47;1.80;;;25.30;62.50;;;;;;5051045;23;20493;-49
2022/04/03 08:52:39;;;;;;;11.32;2.10;;;25.30;62.60;;;;;;5061101;23;20045;-45
2022/04/03 08:55:04;;;;;;;9.82;1.85;;;25.30;62.90;;;;;;5057216;23;20100;-52
2022/04/03 08:57:27;;;;;;;5.13;1.52;;;25.30;62.80;;;;;;5061612;23;20021;-47
2022/04/03 08:59:54;;;;;;;7.55;2.05;;;25.30;62.60;;;;;;5058109;23;20412;-46
2022/04/03 09:02:16;;;;;;;7.22;1.67;;;25.30;62.40;;;;;;5056023;23;20556;-43
2022/04/03 09:04:39;;;;;;;6.53;1.90;;;25.30;62.50;;;;;;5067051;23;20072;-44
2022/04/03 09:07:15;;;;;;;5.00;1.60;;;25.30;62.50;;;;;;5060861;23;20024;-47
2022/04/03 09:09:38;;;;;;;8.18;1.75;;;25.30;62.50;;;;;;5066572;23;20068;-51
2022/04/03 09:12:15;;;;;;;6.10;1.60;;;25.30;62.60;;;;;;5065379;23;20045;-47
2022/04/03 09:14:54;;;;;;;4.32;1.60;;;25.30;62.60;;;;;;5055622;23;20017;-53
2022/04/03 09:17:40;;;;;;;11.75;1.90;;;25.30;62.70;;;;;;5062721;23;20447;-51
2022/04/03 09:20:06;;;;;;;5.28;1.77;;;25.30;62.50;;;;;;5062782;23;20018;-47
2022/04/03 09:25:56;;;;;;;3.88;1.40;;;25.30;62.30;;;;;;5069154;23;20018;-54
2022/04/03 09:28:19;;;;;;;5.27;1.50;;;25.30;62.40;;;;;;5062492;23;20018;-46
2022/04/03 09:30:49;;;;;;;4.32;1.60;;;25.30;62.40;;;;;;5061251;23;20025;-45
2022/04/03 09:33:19;;;;;;;16.45;2.40;;;25.30;62.40;;;;;;5056453;23;20076;-46
2022/04/03 09:35:57;;;;;;;5.22;1.55;;;25.30;62.50;;;;;;5049641;23;20013;-44
2022/04/03 09:38:20;;;;;;;4.95;1.40;;;25.30;62.50;;;;;;5018327;23;20144;-46
2022/04/03 09:40:52;;;;;;;6.47;1.90;;;25.30;62.70;;;;;;5039905;23;20017;-46
2022/04/03 09:43:29;;;;;;;5.18;1.65;;;25.20;62.60;;;;;;5045809;23;20017;-46
2022/04/03 09:46:04;;;;;;;5.28;1.50;;;25.30;62.50;;;;;;5051838;23;20128;-49
2022/04/03 09:48:36;;;;;;;4.35;1.85;;;25.30;62.70;;;;;;5044901;23;20120;-51
2022/04/03 09:51:06;;;;;;;3.28;1.48;;;25.30;62.50;;;;;;5043434;23;20180;-49
2022/04/03 09:53:29;;;;;;;4.90;1.48;;;25.30;62.90;;;;;;5041571;23;20405;-50
2022/04/03 09:55:52;;;;;;;4.20;2.00;;;25.20;62.40;;;;;;5043391;23;20825;-53
2022/04/03 09:58:16;;;;;;;11.20;1.80;;;25.20;62.00;;;;;;5044503;23;20057;-49
2022/04/03 10:00:41;;;;;;;4.80;1.73;;;25.20;61.00;;;;;;5049396;23;20820;-46
2022/04/03 10:03:03;;;;;;;7.00;1.90;;;25.20;60.80;;;;;;5048844;23;20017;-48
2022/04/03 10:05:31;;;;;;;6.07;1.80;;;25.10;60.60;;;;;;5050218;23;20018;-45
2022/04/03 10:07:54;;;;;;;2.58;1.20;;;25.10;60.60;;;;;;5052830;23;20013;-49
2022/04/03 10:10:17;;;;;;;3.53;1.48;;;25.10;60.60;;;;;;5050025;23;20118;-47
2022/04/03 10:12:39;;;;;;;3.22;1.58;;;25.10;60.60;;;;;;5053624;23;20028;-47
2022/04/03 10:15:05;;;;;;;4.18;1.95;;;25.10;60.70;;;;;;5017621;23;20086;-46
2022/04/03 10:17:28;;;;;;;5.63;1.80;;;25.10;61.70;;;;;;5043825;23;20091;-49
2022/04/03 10:19:51;;;;;;;6.88;1.90;;;25.00;62.30;;;;;;5051770;23;20014;-46
2022/04/03 10:22:19;;;;;;;;;;;25.10;62.60;;;;;;5046433;23;20564;-47
2022/04/03 10:24:45;;;;;;;5.97;2.53;;;25.10;62.70;;;;;;5048399;23;19915;-47
2022/04/03 10:27:22;;;;;;;5.40;1.40;;;25.10;62.80;;;;;;5048351;23;20045;-49
2022/04/03 10:29:45;;;;;;;4.05;1.63;;;25.10;63.10;;;;;;5047386;23;20383;-47
2022/04/03 10:32:08;;;;;;;3.47;1.70;;;25.10;63.10;;;;;;5018951;23;20542;-47
2022/04/03 10:34:32;;;;;;;4.60;1.80;;;25.10;63.20;;;;;;5047089;23;20396;-45
2022/04/03 10:36:54;;;;;;;;;;;25.10;63.40;;;;;;5045664;23;20080;-47
2022/04/03 10:39:27;;;;;;;2.88;1.35;;;25.10;63.30;;;;;;5048404;23;19904;-46
2022/04/03 10:41:49;;;;;;;4.18;1.60;;;25.10;63.50;;;;;;5054096;23;20377;-47
2022/04/03 10:44:23;;;;;;;3.08;1.63;;;25.10;63.30;;;;;;5046124;23;20014;-47
2022/04/03 10:47:00;;;;;;;2.08;1.30;;;25.10;63.40;;;;;;5048650;23;20029;-48
2022/04/03 10:49:40;;;;;;;10.88;2.60;;;25.10;63.50;;;;;;5046985;23;20024;-45
2022/04/03 10:52:09;;;;;;;4.47;1.90;;;25.10;63.20;;;;;;5048266;23;20060;-47
2022/04/03 10:54:41;;;;;;;6.53;2.00;;;25.10;63.10;;;;;;5052400;23;20097;-48
2022/04/03 10:57:40;;;;;;;6.03;1.50;;;25.00;63.10;;;;;;5052854;23;20101;-47
2022/04/03 11:00:14;;;;;;;4.45;1.58;;;25.00;63.00;;;;;;5051822;23;20562;-43
2022/04/03 11:02:37;;;;;;;5.10;1.63;;;25.00;63.10;;;;;;5046698;23;20100;-47
2022/04/03 11:05:25;;;;;;;14.45;2.00;;;25.00;63.00;;;;;;5054132;23;20546;-46
2022/04/03 11:07:48;;;;;;;13.80;2.13;;;25.00;63.40;;;;;;5054170;23;20017;-47
2022/04/03 11:10:10;;;;;;;12.15;2.33;;;25.00;63.50;;;;;;5054157;23;20017;-49
2022/04/03 11:12:55;;;;;;;7.80;2.20;;;25.00;63.40;;;;;;5053608;23;20788;-50
2022/04/03 11:15:16;;;;;;;;;;;25.00;63.50;;;;;;5059095;23;20478;-47
2022/04/03 11:17:53;;;;;;;12.85;2.00;;;24.90;63.50;;;;;;5045188;23;19987;-48
2022/04/03 11:20:32;;;;;;;12.52;2.10;;;24.90;63.50;;;;;;5019777;23;20096;-53
2022/04/03 11:22:55;;;;;;;6.85;1.90;;;24.90;63.50;;;;;;5030612;23;20061;-47
2022/04/03 11:25:18;;;;;;;7.93;1.58;;;24.90;63.40;;;;;;5027031;23;20049;-51
2022/04/03 11:27:41;;;;;;;7.45;2.10;;;24.90;63.70;;;;;;5027622;23;20131;-47
2022/04/03 11:30:04;;;;;;;9.48;2.10;;;24.90;63.50;;;;;;5033664;23;20495;-46
2022/04/03 11:32:28;;;;;;;6.90;1.90;;;24.90;63.50;;;;;;5025247;23;20030;-44
2022/04/03 11:34:58;;;;;;;;;;;24.90;63.70;;;;;;5026647;23;20014;-47
2022/04/03 11:37:24;;;;;;;6.20;1.55;;;24.90;63.50;;;;;;5028954;23;20411;-48
2022/04/03 11:39:46;;;;;;;4.43;1.50;;;24.80;63.50;;;;;;5022971;23;20018;-48
2022/04/03 11:42:10;;;;;;;10.30;1.60;;;24.80;63.40;;;;;;5031492;23;20515;-49
2022/04/03 11:44:34;;;;;;;10.18;1.65;;;24.80;63.50;;;;;;5015416;23;20045;-51
2022/04/03 11:46:57;;;;;;;5.78;2.20;;;24.80;63.60;;;;;;5028178;23;20190;-46
2022/04/03 11:49:33;;;;;;;6.47;1.52;;;24.80;63.50;;;;;;5031188;23;20014;-50
2022/04/03 11:52:16;;;;;;;7.32;2.20;;;24.80;63.60;;;;;;5020596;23;20030;-48
2022/04/03 11:54:39;;;;;;;8.05;1.88;;;24.80;63.50;;;;;;5025817;23;20120;-42
2022/04/03 11:57:07;;;;;;;13.88;2.05;;;24.80;62.70;;;;;;5031432;23;20169;-42
2022/04/03 11:59:32;;;;;;;7.78;1.58;;;24.80;62.90;;;;;;5027724;23;20093;-43
2022/04/03 12:01:55;;;;;;;12.07;2.28;;;24.70;62.80;;;;;;5028311;23;20096;-46
2022/04/03 12:04:18;;;;;;;6.67;1.93;;;24.70;62.80;;;;;;5027394;23;20021;-42
2022/04/03 12:06:50;;;;;;;10.25;2.35;;;24.70;63.00;;;;;;5027801;23;20124;-44
2022/04/03 12:09:14;;;;;;;8.95;2.20;;;24.70;63.00;;;;;;5026076;23;20014;-41
2022/04/03 12:11:45;;;;;;;13.18;2.45;;;24.70;63.00;;;;;;5021810;23;20026;-45
2022/04/03 12:14:09;;;;;;;5.90;1.80;;;24.70;63.00;;;;;;5020912;23;20668;-47
2022/04/03 12:16:37;;;;;;;5.32;1.55;;;24.70;63.00;;;;;;5023987;23;20025;-41
2022/04/03 12:19:04;;;;;;;8.15;2.13;;;24.60;63.00;;;;;;5033141;23;20055;-45
2022/04/03 12:21:46;;;;;;;5.53;1.90;;;24.70;63.20;;;;;;5023385;23;20021;-41
2022/04/03 12:24:13;;;;;;;10.73;2.00;;;24.60;63.20;;;;;;5024986;23;20017;-42
2022/04/03 12:26:37;;;;;;;6.80;1.77;;;24.60;63.30;;;;;;5027329;23;20018;-43
2022/04/03 12:29:00;;;;;;;4.00;1.67;;;24.60;63.30;;;;;;5022065;23;20017;-50
2022/04/03 12:31:30;;;;;;;4.63;2.22;;;24.60;63.50;;;;;;5020709;23;20098;-45
2022/04/03 12:34:16;;;;;;;4.13;1.90;;;24.60;63.50;;;;;;5029224;23;20022;-44
2022/04/03 12:36:41;;;;;;;6.25;1.83;;;24.60;63.50;;;;;;5022172;23;20045;-44